createdAt,value
2023-01-29T00:00:03.377Z,-0.19
2023-01-29T00:02:30.031Z,-0.30
2023-01-29T00:08:12.038Z,-0.30
2023-01-29T00:10:38.684Z,-0.24
2023-01-29T00:13:05.437Z,-0.14
2023-01-29T00:15:32.015Z,-0.18
2023-01-29T00:17:58.796Z,-0.42
2023-01-29T00:20:25.338Z,-0.25
2023-01-29T00:22:51.861Z,-0.35
2023-01-29T00:25:19.333Z,-0.35
2023-01-29T00:27:45.913Z,-0.39
2023-01-29T00:30:12.443Z,-0.41
2023-01-29T00:32:39.089Z,-0.36
2023-01-29T00:35:05.872Z,-0.46
2023-01-29T00:37:32.718Z,-0.44
2023-01-29T00:39:59.421Z,-0.28
2023-01-29T00:42:26.024Z,-0.16
2023-01-29T00:44:52.461Z,-0.14
2023-01-29T00:47:19.291Z,-0.36
2023-01-29T00:49:48.039Z,-0.25
2023-01-29T01:03:28.958Z,-0.20
2023-01-29T01:06:01.069Z,-0.11
2023-01-29T01:08:27.981Z,-0.29
2023-01-29T01:10:54.793Z,-0.17
2023-01-29T01:13:23.285Z,-0.24
2023-01-29T01:15:50.031Z,-0.25
2023-01-29T01:18:17.465Z,-0.28
2023-01-29T01:20:44.281Z,-0.19
2023-01-29T01:23:11.105Z,-0.17
2023-01-29T01:25:39.811Z,-0.10
2023-01-29T01:28:07.032Z,-0.06
2023-01-29T01:30:33.736Z,-0.05
2023-01-29T01:33:00.524Z,-0.26
2023-01-29T01:35:27.130Z,-0.26
2023-01-29T01:37:53.950Z,-0.19
2023-01-29T01:42:49.319Z,-0.07
2023-01-29T01:45:15.926Z,-0.12
2023-01-29T01:47:42.803Z,-0.08
2023-01-29T01:50:09.232Z,-0.11
2023-01-29T01:52:37.931Z,-0.01
2023-01-29T01:55:04.769Z,-0.01
2023-01-29T01:57:31.363Z,-0.13
2023-01-29T01:59:58.226Z,-0.03
2023-01-29T02:02:27.336Z,-0.18
2023-01-29T02:04:54.241Z,0.14
2023-01-29T02:07:20.806Z,0.02
2023-01-29T02:09:47.506Z,0.04
2023-01-29T02:12:14.340Z,0.04
2023-01-29T02:14:40.935Z,-0.08
2023-01-29T02:17:14.803Z,-0.04
2023-01-29T02:19:41.448Z,-0.11
2023-01-29T02:22:08.158Z,-0.02
2023-01-29T02:24:36.291Z,-0.13
2023-01-29T02:27:03.221Z,-0.21
2023-01-29T02:29:29.846Z,-0.20
2023-01-29T02:31:56.370Z,-0.31
2023-01-29T02:34:23.171Z,-0.29
2023-01-29T02:36:49.699Z,-0.24
2023-01-29T02:39:16.566Z,-0.05
2023-01-29T02:41:45.486Z,0.13
2023-01-29T02:44:12.323Z,0.14
2023-01-29T02:46:39.003Z,0.08
2023-01-29T02:49:05.481Z,-0.03
2023-01-29T02:51:34.046Z,0.26
2023-01-29T02:54:00.639Z,0.21
2023-01-29T02:56:27.188Z,0.16
2023-01-29T02:58:54.027Z,0.24
2023-01-29T03:01:20.627Z,0.27
2023-01-29T03:03:47.282Z,0.08
2023-01-29T03:06:14.148Z,0.06
2023-01-29T03:08:40.684Z,0.20
2023-01-29T03:11:07.273Z,0.08
2023-01-29T03:13:33.782Z,0.22
2023-01-29T03:16:00.650Z,0.01
2023-01-29T03:18:27.474Z,0.20
2023-01-29T03:20:54.248Z,0.26
2023-01-29T03:23:21.071Z,0.26
2023-01-29T03:25:47.961Z,0.10
2023-01-29T03:28:14.729Z,0.27
2023-01-29T03:30:41.427Z,0.26
2023-01-29T03:33:08.194Z,0.20
2023-01-29T03:35:34.704Z,0.25
2023-01-29T03:38:01.256Z,0.07
2023-01-29T03:40:28.527Z,0.14
2023-01-29T03:42:59.077Z,0.26
2023-01-29T03:45:25.637Z,0.19
2023-01-29T03:47:52.203Z,0.13
2023-01-29T03:50:19.029Z,0.27
2023-01-29T03:52:45.817Z,0.14
2023-01-29T03:55:12.501Z,0.29
2023-01-29T03:57:41.464Z,0.59
2023-01-29T04:00:08.049Z,0.52
2023-01-29T04:02:34.868Z,0.61
2023-01-29T04:05:01.730Z,0.61
2023-01-29T04:07:28.789Z,0.41
2023-01-29T04:09:56.237Z,0.33
2023-01-29T04:12:23.459Z,0.23
2023-01-29T04:14:49.987Z,0.38
2023-01-29T04:17:18.493Z,0.34
2023-01-29T04:19:45.004Z,0.44
2023-01-29T04:22:11.721Z,0.54
2023-01-29T04:24:40.703Z,0.54
2023-01-29T04:27:09.102Z,0.51
2023-01-29T04:29:35.647Z,0.44
2023-01-29T04:32:02.463Z,0.57
2023-01-29T04:34:30.042Z,0.56
2023-01-29T04:36:56.928Z,0.38
2023-01-29T04:39:23.465Z,0.20
2023-01-29T04:41:50.800Z,0.55
2023-01-29T04:44:17.425Z,0.35
2023-01-29T04:46:44.257Z,0.60
2023-01-29T04:52:27.478Z,0.56
2023-01-29T04:54:54.181Z,0.70
2023-01-29T04:57:20.885Z,0.74
2023-01-29T04:59:47.676Z,0.40
2023-01-29T05:02:14.229Z,0.44
2023-01-29T05:04:43.470Z,0.28
2023-01-29T05:07:10.310Z,0.09
2023-01-29T05:09:37.660Z,0.35
2023-01-29T05:12:04.453Z,0.53
2023-01-29T05:14:31.416Z,0.29
2023-01-29T05:16:58.031Z,0.20
2023-01-29T05:19:24.797Z,0.15
2023-01-29T05:21:52.452Z,0.20
2023-01-29T05:24:19.335Z,0.33
2023-01-29T05:26:47.826Z,0.33
2023-01-29T05:29:14.765Z,0.47
2023-01-29T05:31:41.411Z,0.38
2023-01-29T05:34:08.236Z,0.39
2023-01-29T05:36:34.895Z,0.70
2023-01-29T05:39:04.158Z,0.65
2023-01-29T05:41:30.759Z,0.88
2023-01-29T05:44:00.255Z,0.60
2023-01-29T05:46:27.439Z,0.29
2023-01-29T05:48:56.580Z,0.35
2023-01-29T05:51:23.388Z,0.30
2023-01-29T05:53:50.240Z,0.34
2023-01-29T05:56:17.157Z,0.17
2023-01-29T05:58:46.146Z,0.32
2023-01-29T06:01:13.452Z,0.05
2023-01-29T06:03:40.067Z,0.14
2023-01-29T06:06:08.995Z,0.49
2023-01-29T06:08:35.754Z,0.18
2023-01-29T06:11:02.553Z,0.08
2023-01-29T06:13:29.774Z,0.21
2023-01-29T06:15:56.450Z,0.16
2023-01-29T06:18:23.840Z,0.23
2023-01-29T06:20:50.438Z,0.27
2023-01-29T06:23:17.260Z,0.30
2023-01-29T06:25:44.063Z,0.28
2023-01-29T06:28:10.908Z,0.28
2023-01-29T06:30:39.804Z,0.29
2023-01-29T06:33:08.757Z,0.47
2023-01-29T06:35:35.584Z,0.67
2023-01-29T06:38:04.573Z,0.52
2023-01-29T06:40:32.629Z,0.62
2023-01-29T06:42:59.929Z,0.77
2023-01-29T06:45:27.031Z,0.77
2023-01-29T06:47:53.701Z,0.64
2023-01-29T06:50:20.437Z,1.27
2023-01-29T06:52:49.297Z,1.21
2023-01-29T06:55:15.995Z,0.84
2023-01-29T06:57:43.025Z,0.78
2023-01-29T07:00:09.774Z,0.91
2023-01-29T07:02:40.826Z,0.64
2023-01-29T07:05:07.574Z,0.94
2023-01-29T07:07:34.390Z,0.74
2023-01-29T07:10:01.922Z,0.78
2023-01-29T07:12:28.686Z,0.72
2023-01-29T07:14:57.621Z,0.47
2023-01-29T07:17:24.434Z,0.40
2023-01-29T07:19:51.799Z,0.43
2023-01-29T07:22:18.642Z,0.57
2023-01-29T07:24:45.209Z,0.32
2023-01-29T07:27:12.805Z,0.67
2023-01-29T07:29:39.524Z,0.94
2023-01-29T07:32:06.043Z,0.73
2023-01-29T07:34:32.896Z,0.59
2023-01-29T07:36:59.609Z,0.76
2023-01-29T07:42:15.249Z,0.97
2023-01-29T07:44:44.345Z,1.01
2023-01-29T07:47:11.046Z,0.97
2023-01-29T07:49:38.885Z,1.24
2023-01-29T07:52:05.741Z,1.08
2023-01-29T07:54:32.231Z,0.91
2023-01-29T07:57:00.924Z,0.72
2023-01-29T08:02:30.545Z,1.50
2023-01-29T08:04:57.451Z,1.53
2023-01-29T08:07:24.014Z,1.72
2023-01-29T08:09:51.352Z,3.01
2023-01-29T08:12:20.236Z,3.63
2023-01-29T08:14:46.793Z,3.91
2023-01-29T08:17:15.732Z,4.12
2023-01-29T08:19:42.376Z,3.53
2023-01-29T08:22:08.969Z,3.09
2023-01-29T08:24:47.926Z,4.14
2023-01-29T08:27:20.873Z,4.81
2023-01-29T08:29:47.739Z,4.98
2023-01-29T08:32:14.898Z,4.01
2023-01-29T08:34:41.488Z,4.56
2023-01-29T08:37:08.365Z,5.02
2023-01-29T08:39:35.186Z,4.67
2023-01-29T08:42:02.760Z,4.28
2023-01-29T08:44:34.206Z,4.03
2023-01-29T08:47:00.920Z,4.56
2023-01-29T08:49:27.623Z,4.28
2023-01-29T08:51:54.307Z,4.68
2023-01-29T08:54:23.822Z,5.00
2023-01-29T08:56:50.502Z,5.11
2023-01-29T08:59:17.305Z,5.18
2023-01-29T09:01:44.189Z,5.11
2023-01-29T09:07:12.821Z,6.04
2023-01-29T09:09:39.421Z,6.14
2023-01-29T09:12:06.032Z,6.27
2023-01-29T09:14:32.876Z,6.20
2023-01-29T09:16:59.716Z,6.41
2023-01-29T09:19:28.737Z,6.58
2023-01-29T09:21:55.814Z,6.79
2023-01-29T09:24:22.331Z,6.96
2023-01-29T09:26:50.232Z,6.81
2023-01-29T09:29:17.013Z,6.77
2023-01-29T09:31:43.708Z,6.92
2023-01-29T09:34:10.459Z,6.87
2023-01-29T09:36:39.438Z,6.97
2023-01-29T09:39:09.281Z,6.18
2023-01-29T09:41:36.108Z,5.95
2023-01-29T09:44:02.926Z,5.65
2023-01-29T09:46:29.805Z,5.51
2023-01-29T09:48:56.527Z,5.50
2023-01-29T09:51:23.435Z,5.67
2023-01-29T09:53:50.114Z,5.45
2023-01-29T09:56:17.395Z,4.94
2023-01-29T09:58:44.011Z,4.75
2023-01-29T10:01:10.687Z,4.80
2023-01-29T10:03:38.178Z,4.27
2023-01-29T10:06:04.691Z,5.57
2023-01-29T10:08:31.640Z,6.19
2023-01-29T10:10:58.370Z,6.37
2023-01-29T10:13:26.313Z,6.43
2023-01-29T10:15:52.913Z,6.54
2023-01-29T10:18:19.729Z,6.30
2023-01-29T10:20:46.397Z,6.49
2023-01-29T10:23:13.013Z,6.89
2023-01-29T10:25:39.518Z,6.88
2023-01-29T10:28:05.973Z,6.77
2023-01-29T10:30:34.961Z,6.19
2023-01-29T10:33:02.473Z,6.64
2023-01-29T10:35:29.297Z,6.88
2023-01-29T10:37:55.819Z,6.92
2023-01-29T10:40:22.367Z,6.82
2023-01-29T10:42:49.138Z,6.75
2023-01-29T10:45:16.045Z,7.15
2023-01-29T10:47:43.335Z,6.90
2023-01-29T10:50:10.109Z,6.90
2023-01-29T10:52:36.896Z,6.75
2023-01-29T10:55:03.598Z,6.72
2023-01-29T10:57:30.192Z,7.16
2023-01-29T10:59:57.226Z,7.38
2023-01-29T11:02:23.852Z,6.77
2023-01-29T11:04:51.275Z,7.24
2023-01-29T11:07:18.022Z,7.42
2023-01-29T11:09:47.478Z,7.05
2023-01-29T11:12:14.179Z,7.27
2023-01-29T11:14:41.073Z,7.19
2023-01-29T11:17:08.627Z,7.06
2023-01-29T11:19:35.144Z,6.37
2023-01-29T11:22:01.917Z,6.80
2023-01-29T11:24:28.690Z,7.27
2023-01-29T11:26:55.492Z,7.53
2023-01-29T11:29:22.209Z,7.27
2023-01-29T11:31:48.852Z,7.21
2023-01-29T11:34:15.414Z,6.64
2023-01-29T11:36:41.952Z,7.17
2023-01-29T11:39:08.767Z,7.24
2023-01-29T11:41:36.404Z,7.50
2023-01-29T11:44:03.144Z,7.24
2023-01-29T11:46:29.830Z,7.35
2023-01-29T11:48:59.265Z,7.02
2023-01-29T11:51:32.529Z,6.99
2023-01-29T11:53:59.397Z,7.29
2023-01-29T11:56:26.680Z,7.61
2023-01-29T11:58:53.433Z,7.65
2023-01-29T12:01:20.012Z,7.82
2023-01-29T12:03:46.633Z,7.97
2023-01-29T12:09:08.363Z,7.15
2023-01-29T12:11:37.232Z,7.42
2023-01-29T12:14:07.565Z,7.70
2023-01-29T12:16:34.582Z,7.77
2023-01-29T12:19:01.139Z,7.70
2023-01-29T12:21:28.711Z,7.50
2023-01-29T12:23:56.003Z,7.82
2023-01-29T12:26:22.669Z,7.79
2023-01-29T12:28:49.767Z,7.79
2023-01-29T12:31:16.326Z,7.95
2023-01-29T12:33:42.882Z,7.65
2023-01-29T12:36:10.964Z,6.20
2023-01-29T12:38:37.694Z,6.12
2023-01-29T12:41:04.206Z,5.15
2023-01-29T12:43:32.821Z,6.30
2023-01-29T12:46:00.424Z,6.88
2023-01-29T12:48:27.869Z,7.40
2023-01-29T12:50:55.347Z,7.36
2023-01-29T12:53:22.685Z,7.70
2023-01-29T12:55:49.754Z,7.43
2023-01-29T12:58:16.773Z,7.58
2023-01-29T13:00:44.161Z,7.15
2023-01-29T13:03:10.813Z,7.59
2023-01-29T13:08:55.099Z,7.85
2023-01-29T13:14:14.906Z,8.19
2023-01-29T13:19:56.579Z,6.18
2023-01-29T13:22:25.850Z,4.29
2023-01-29T13:25:04.309Z,4.66
2023-01-29T13:27:31.984Z,5.64
2023-01-29T13:29:58.504Z,6.32
2023-01-29T13:32:24.993Z,5.92
2023-01-29T13:34:51.578Z,5.08
2023-01-29T13:37:18.115Z,5.69
2023-01-29T13:39:44.615Z,5.51
2023-01-29T13:42:11.345Z,5.74
2023-01-29T13:44:38.166Z,6.06
2023-01-29T13:47:04.756Z,6.53
2023-01-29T13:49:31.283Z,7.20
2023-01-29T13:51:58.108Z,7.44
2023-01-29T13:54:25.008Z,7.45
2023-01-29T13:56:51.878Z,6.97
2023-01-29T13:59:18.654Z,7.30
2023-01-29T14:01:45.255Z,7.56
2023-01-29T14:04:12.042Z,6.69
2023-01-29T14:06:38.576Z,7.10
2023-01-29T14:09:05.180Z,7.22
2023-01-29T14:11:32.630Z,7.48
2023-01-29T14:16:49.250Z,7.05
2023-01-29T14:19:18.484Z,7.85
2023-01-29T14:21:47.074Z,7.84
2023-01-29T14:24:13.925Z,7.99
2023-01-29T14:26:43.588Z,8.18
2023-01-29T14:29:10.250Z,8.28
2023-01-29T14:31:36.879Z,8.15
2023-01-29T14:34:03.573Z,7.73
2023-01-29T14:36:30.087Z,8.12
2023-01-29T14:39:01.847Z,8.19
2023-01-29T14:41:32.917Z,7.26
2023-01-29T14:43:59.472Z,5.60
2023-01-29T14:46:26.308Z,5.26
2023-01-29T14:48:53.851Z,5.33
2023-01-29T14:51:20.516Z,4.60
2023-01-29T14:53:48.242Z,4.22
2023-01-29T14:56:14.814Z,4.10
2023-01-29T14:58:42.238Z,4.28
2023-01-29T15:01:08.981Z,3.96
2023-01-29T15:03:35.529Z,3.84
2023-01-29T15:06:03.687Z,3.77
2023-01-29T15:08:30.733Z,3.53
2023-01-29T15:10:57.638Z,3.85
2023-01-29T15:13:26.476Z,3.84
2023-01-29T15:15:54.125Z,4.15
2023-01-29T15:18:20.762Z,4.56
2023-01-29T15:20:49.714Z,4.15
2023-01-29T15:23:16.481Z,3.91
2023-01-29T15:25:45.461Z,4.58
2023-01-29T15:28:12.247Z,4.97
2023-01-29T15:30:39.205Z,5.48
2023-01-29T15:33:06.119Z,6.25
2023-01-29T15:35:34.911Z,6.29
2023-01-29T15:38:01.597Z,6.60
2023-01-29T15:40:28.111Z,6.43
2023-01-29T15:42:56.700Z,6.06
2023-01-29T15:45:23.863Z,5.11
2023-01-29T15:47:50.516Z,5.35
2023-01-29T15:50:17.268Z,5.45
2023-01-29T15:52:44.147Z,5.04
2023-01-29T15:55:10.924Z,4.57
2023-01-29T15:57:37.695Z,4.67
2023-01-29T16:00:04.290Z,4.72
2023-01-29T16:02:31.909Z,5.23
2023-01-29T16:04:58.721Z,4.93
2023-01-29T16:07:25.603Z,4.48
2023-01-29T16:09:52.656Z,4.08
2023-01-29T16:12:22.498Z,3.92
2023-01-29T16:14:49.647Z,3.90
2023-01-29T16:17:18.049Z,3.51
2023-01-29T16:19:49.119Z,3.68
2023-01-29T16:22:15.673Z,3.59
2023-01-29T16:24:42.294Z,3.96
2023-01-29T16:27:08.860Z,3.57
2023-01-29T16:29:35.861Z,4.37
2023-01-29T16:32:02.620Z,4.39
2023-01-29T16:34:29.623Z,4.20
2023-01-29T16:36:56.179Z,4.45
2023-01-29T16:39:23.272Z,5.09
2023-01-29T16:41:51.001Z,5.39
2023-01-29T16:44:17.602Z,5.64
2023-01-29T16:46:44.472Z,5.36
2023-01-29T16:49:12.088Z,5.48
2023-01-29T16:51:40.403Z,6.11
2023-01-29T16:54:07.003Z,6.41
2023-01-29T16:56:34.607Z,6.48
2023-01-29T16:59:13.821Z,6.73
2023-01-29T17:01:40.296Z,6.60
2023-01-29T17:04:07.750Z,6.71
2023-01-29T17:06:35.378Z,6.51
2023-01-29T17:09:01.991Z,6.79
2023-01-29T17:11:28.882Z,6.64
2023-01-29T17:13:56.551Z,6.85
2023-01-29T17:16:23.723Z,6.81
2023-01-29T17:18:50.405Z,6.73
2023-01-29T17:21:17.023Z,6.75
2023-01-29T17:23:44.423Z,6.73
2023-01-29T17:26:11.429Z,6.72
2023-01-29T17:28:38.123Z,6.80
2023-01-29T17:31:07.208Z,6.79
2023-01-29T17:39:36.163Z,6.69
2023-01-29T17:42:03.390Z,6.47
2023-01-29T17:44:31.024Z,6.58
2023-01-29T17:46:57.999Z,6.51
2023-01-29T17:49:24.653Z,6.54
2023-01-29T17:51:54.111Z,6.18
2023-01-29T17:54:20.968Z,6.02
2023-01-29T17:56:47.671Z,6.17
2023-01-29T17:59:16.942Z,6.19
2023-01-29T18:01:43.886Z,6.33
2023-01-29T18:04:15.315Z,6.26
2023-01-29T18:06:47.654Z,6.20
2023-01-29T18:09:14.291Z,6.36
2023-01-29T18:11:41.291Z,6.37
2023-01-29T18:14:14.527Z,6.23
2023-01-29T18:16:41.550Z,6.15
2023-01-29T18:19:08.465Z,6.33
2023-01-29T18:21:35.335Z,6.38
2023-01-29T18:24:02.927Z,6.27
2023-01-29T18:26:29.731Z,5.89
2023-01-29T18:28:56.631Z,5.94
2023-01-29T18:31:23.775Z,6.07
2023-01-29T18:33:54.391Z,6.12
2023-01-29T18:36:22.782Z,6.23
2023-01-29T18:38:49.939Z,6.00
2023-01-29T18:41:17.277Z,5.04
2023-01-29T18:43:43.958Z,4.46
2023-01-29T18:46:14.891Z,3.67
2023-01-29T18:48:43.008Z,3.19
2023-01-29T18:51:10.610Z,3.02
2023-01-29T18:53:38.448Z,2.85
2023-01-29T18:56:07.383Z,2.89
2023-01-29T18:58:39.595Z,3.01
2023-01-29T19:01:08.678Z,2.76
2023-01-29T19:03:35.734Z,2.65
2023-01-29T19:06:02.378Z,2.74
2023-01-29T19:08:29.236Z,3.12
2023-01-29T19:10:55.795Z,3.11
2023-01-29T19:13:22.654Z,2.97
2023-01-29T19:15:49.377Z,2.67
2023-01-29T19:18:16.257Z,2.75
2023-01-29T19:20:42.804Z,2.85
2023-01-29T19:23:09.422Z,2.77
2023-01-29T19:31:41.142Z,4.02
2023-01-29T19:34:07.764Z,4.40
2023-01-29T19:36:34.319Z,4.41
2023-01-29T19:39:01.082Z,4.36
2023-01-29T19:41:29.688Z,4.21
2023-01-29T19:43:56.514Z,4.41
2023-01-29T19:46:31.063Z,4.57
2023-01-29T19:48:59.798Z,3.97
2023-01-29T19:51:29.053Z,3.66
2023-01-29T19:53:55.682Z,3.63
2023-01-29T19:59:02.744Z,4.45
2023-01-29T20:01:30.109Z,4.80
2023-01-29T20:03:57.550Z,4.47
2023-01-29T20:06:24.198Z,4.02
2023-01-29T20:08:51.215Z,4.31
2023-01-29T20:11:18.481Z,4.58
2023-01-29T20:13:45.382Z,3.86
2023-01-29T20:16:13.687Z,3.93
2023-01-29T20:18:42.470Z,4.37
2023-01-29T20:21:09.248Z,4.87
2023-01-29T20:23:38.743Z,4.70
2023-01-29T20:26:07.604Z,4.82
2023-01-29T20:28:36.909Z,4.37
2023-01-29T20:31:03.868Z,3.70
2023-01-29T20:33:31.266Z,3.47
2023-01-29T20:35:57.878Z,3.84
2023-01-29T20:38:24.807Z,3.67
2023-01-29T20:40:51.647Z,3.33
2023-01-29T20:43:18.506Z,2.90
2023-01-29T20:54:31.818Z,3.45
2023-01-29T20:56:59.202Z,2.32
2023-01-29T20:59:25.746Z,2.55
2023-01-29T21:01:52.441Z,3.10
2023-01-29T21:04:19.024Z,2.94
2023-01-29T21:06:47.831Z,2.97
2023-01-29T21:09:14.377Z,2.58
2023-01-29T21:11:40.828Z,2.54
2023-01-29T21:14:09.098Z,2.83
2023-01-29T21:16:36.227Z,2.34
2023-01-29T21:19:03.539Z,2.03
2023-01-29T21:21:31.237Z,1.46
2023-01-29T21:23:57.915Z,2.13
2023-01-29T21:26:25.603Z,2.37
2023-01-29T21:28:52.535Z,2.91
2023-01-29T21:31:19.992Z,2.46
2023-01-29T21:33:46.844Z,2.90
2023-01-29T21:36:13.477Z,2.31
2023-01-29T21:38:40.095Z,2.75
2023-01-29T21:41:06.627Z,2.53
2023-01-29T21:43:33.150Z,3.20
2023-01-29T21:45:59.793Z,3.53
2023-01-29T21:51:41.630Z,3.74
2023-01-29T21:54:08.195Z,3.78
2023-01-29T21:56:35.007Z,3.71
2023-01-29T21:59:01.860Z,3.59
2023-01-29T22:01:37.979Z,3.45
2023-01-29T22:04:07.633Z,2.66
2023-01-29T22:06:34.536Z,1.56
2023-01-29T22:09:01.331Z,1.53
2023-01-29T22:11:28.361Z,1.17
2023-01-29T22:13:55.029Z,0.98
2023-01-29T22:16:23.261Z,1.13
2023-01-29T22:18:50.088Z,1.79
2023-01-29T22:21:16.617Z,1.60
2023-01-29T22:23:44.135Z,1.58
2023-01-29T22:26:10.727Z,1.88
2023-01-29T22:28:39.951Z,2.48
2023-01-29T22:31:08.745Z,2.46
2023-01-29T22:33:35.577Z,2.97
2023-01-29T22:36:02.149Z,2.78
2023-01-29T22:38:28.937Z,3.06
2023-01-29T22:40:56.024Z,3.14
2023-01-29T22:43:23.588Z,3.15
2023-01-29T22:45:50.437Z,3.02
2023-01-29T22:48:19.247Z,3.24
2023-01-29T22:50:46.108Z,3.87
2023-01-29T22:53:12.623Z,3.72
2023-01-29T22:55:45.131Z,4.30
2023-01-29T22:58:12.042Z,4.47
2023-01-29T23:00:39.534Z,4.28
2023-01-29T23:03:06.354Z,4.36
2023-01-29T23:05:33.093Z,4.21
2023-01-29T23:08:00.376Z,4.31
2023-01-29T23:10:27.233Z,4.25
2023-01-29T23:12:56.210Z,4.27
2023-01-29T23:15:23.037Z,4.21
2023-01-29T23:17:49.724Z,4.51
2023-01-29T23:20:16.944Z,4.96
2023-01-29T23:22:43.829Z,4.08
2023-01-29T23:25:12.857Z,4.63
2023-01-29T23:27:39.704Z,4.90
2023-01-29T23:30:08.520Z,5.01
2023-01-29T23:32:35.546Z,5.19
2023-01-29T23:35:02.101Z,5.54
2023-01-29T23:37:28.926Z,4.99
2023-01-29T23:39:55.434Z,4.55
2023-01-29T23:42:21.954Z,4.13
2023-01-29T23:44:48.765Z,3.78
2023-01-29T23:47:15.659Z,3.83
2023-01-29T23:49:42.526Z,3.84
2023-01-29T23:52:09.114Z,4.51
2023-01-29T23:54:35.794Z,4.33
2023-01-29T23:57:02.508Z,3.95
2023-01-29T23:59:29.373Z,3.87
